Terminal Aerodrome Forecast
Issued by NWS

Home | Current Version | Previous Version | Graphics & Text | Print | Product List | Glossary On
Versions: 1 2 3 4 5 6 7 8 9 10 11 12 13 14 15 16 17 18
000
FTUS43 KMPX 281023 AAA
TAFRNH
TAF AMD
KRNH 281023Z 2810/2906 15006KT P6SM BKN200
     FM281400 12010KT 6SM -SHRA SCT015 BKN035
      TEMPO 2816/2820 BKN020
     FM282000 10008KT P6SM BKN035
     FM282200 09009KT P6SM BKN060
     FM290400 VRB03KT P6SM BKN150=

USA.gov is the U.S. government's official web portal to all federal, state and local government web resources and services.